sensor_id;sensor_type;location;lat;lon;timestamp;P1;durP1;ratioP1;P2;durP2;ratioP2
24163;SDS011;12319;49.204;8.116;2023-02-18T00:00:24;4.07;;;1.92;;
24163;SDS011;12319;49.204;8.116;2023-02-18T00:02:50;4.53;;;2.10;;
24163;SDS011;12319;49.204;8.116;2023-02-18T00:05:16;5.45;;;2.42;;
24163;SDS011;12319;49.204;8.116;2023-02-18T00:07:41;5.00;;;2.33;;
24163;SDS011;12319;49.204;8.116;2023-02-18T00:10:10;5.00;;;2.50;;
24163;SDS011;12319;49.204;8.116;2023-02-18T00:12:41;5.00;;;2.50;;
24163;SDS011;12319;49.204;8.116;2023-02-18T00:15:07;5.18;;;2.60;;
24163;SDS011;12319;49.204;8.116;2023-02-18T00:17:33;5.00;;;2.50;;
24163;SDS011;12319;49.204;8.116;2023-02-18T00:19:59;4.10;;;1.83;;
24163;SDS011;12319;49.204;8.116;2023-02-18T00:22:24;4.47;;;2.15;;
24163;SDS011;12319;49.204;8.116;2023-02-18T00:24:50;3.70;;;1.73;;
24163;SDS011;12319;49.204;8.116;2023-02-18T00:27:15;3.50;;;1.80;;
24163;SDS011;12319;49.204;8.116;2023-02-18T00:29:41;3.30;;;1.73;;
24163;SDS011;12319;49.204;8.116;2023-02-18T00:32:07;3.80;;;1.70;;
24163;SDS011;12319;49.204;8.116;2023-02-18T00:34:33;4.30;;;1.90;;
24163;SDS011;12319;49.204;8.116;2023-02-18T00:36:58;3.87;;;1.90;;
24163;SDS011;12319;49.204;8.116;2023-02-18T00:39:24;3.80;;;1.88;;
24163;SDS011;12319;49.204;8.116;2023-02-18T00:41:49;4.07;;;1.77;;
24163;SDS011;12319;49.204;8.116;2023-02-18T00:44:15;3.23;;;1.60;;
24163;SDS011;12319;49.204;8.116;2023-02-18T00:46:40;3.83;;;1.90;;
24163;SDS011;12319;49.204;8.116;2023-02-18T00:49:06;3.90;;;1.98;;
24163;SDS011;12319;49.204;8.116;2023-02-18T00:51:32;4.45;;;2.00;;
24163;SDS011;12319;49.204;8.116;2023-02-18T00:53:58;3.57;;;1.70;;
24163;SDS011;12319;49.204;8.116;2023-02-18T00:56:24;4.60;;;1.92;;
24163;SDS011;12319;49.204;8.116;2023-02-18T00:58:50;4.10;;;1.93;;
24163;SDS011;12319;49.204;8.116;2023-02-18T01:01:16;4.25;;;1.90;;
24163;SDS011;12319;49.204;8.116;2023-02-18T01:03:42;3.78;;;1.90;;
24163;SDS011;12319;49.204;8.116;2023-02-18T01:06:09;3.55;;;1.70;;
24163;SDS011;12319;49.204;8.116;2023-02-18T01:08:36;3.80;;;1.90;;
24163;SDS011;12319;49.204;8.116;2023-02-18T01:11:03;4.00;;;1.90;;
24163;SDS011;12319;49.204;8.116;2023-02-18T01:13:29;4.10;;;2.00;;
24163;SDS011;12319;49.204;8.116;2023-02-18T01:15:55;3.90;;;1.70;;
24163;SDS011;12319;49.204;8.116;2023-02-18T01:18:21;4.70;;;2.40;;
24163;SDS011;12319;49.204;8.116;2023-02-18T01:20:47;4.38;;;2.00;;
24163;SDS011;12319;49.204;8.116;2023-02-18T01:23:13;4.93;;;2.50;;
24163;SDS011;12319;49.204;8.116;2023-02-18T01:25:39;5.10;;;2.03;;
24163;SDS011;12319;49.204;8.116;2023-02-18T01:28:05;4.32;;;2.20;;
24163;SDS011;12319;49.204;8.116;2023-02-18T01:30:32;4.70;;;2.20;;
24163;SDS011;12319;49.204;8.116;2023-02-18T01:32:58;4.25;;;2.33;;
24163;SDS011;12319;49.204;8.116;2023-02-18T01:35:24;3.90;;;1.90;;
24163;SDS011;12319;49.204;8.116;2023-02-18T01:37:50;4.38;;;2.08;;
24163;SDS011;12319;49.204;8.116;2023-02-18T01:40:17;3.75;;;2.00;;
24163;SDS011;12319;49.204;8.116;2023-02-18T01:42:45;4.63;;;2.07;;
24163;SDS011;12319;49.204;8.116;2023-02-18T01:47:59;3.63;;;1.80;;
24163;SDS011;12319;49.204;8.116;2023-02-18T01:50:39;4.43;;;2.10;;
24163;SDS011;12319;49.204;8.116;2023-02-18T01:53:08;3.73;;;1.80;;
24163;SDS011;12319;49.204;8.116;2023-02-18T01:55:35;3.67;;;1.90;;
24163;SDS011;12319;49.204;8.116;2023-02-18T01:58:03;3.80;;;1.88;;
24163;SDS011;12319;49.204;8.116;2023-02-18T02:00:28;5.03;;;2.30;;
24163;SDS011;12319;49.204;8.116;2023-02-18T02:02:56;4.82;;;2.40;;
24163;SDS011;12319;49.204;8.116;2023-02-18T02:05:22;4.72;;;2.40;;
24163;SDS011;12319;49.204;8.116;2023-02-18T02:07:49;4.93;;;2.60;;
24163;SDS011;12319;49.204;8.116;2023-02-18T02:10:17;4.25;;;2.00;;
24163;SDS011;12319;49.204;8.116;2023-02-18T02:15:48;5.00;;;2.40;;
24163;SDS011;12319;49.204;8.116;2023-02-18T02:24:20;4.20;;;2.15;;
24163;SDS011;12319;49.204;8.116;2023-02-18T02:27:14;4.30;;;2.00;;
24163;SDS011;12319;49.204;8.116;2023-02-18T02:37:53;3.80;;;1.90;;
24163;SDS011;12319;49.204;8.116;2023-02-18T02:43:10;3.85;;;1.92;;
24163;SDS011;12319;49.204;8.116;2023-02-18T02:54:13;4.57;;;2.40;;
24163;SDS011;12319;49.204;8.116;2023-02-18T02:56:39;5.03;;;2.40;;
24163;SDS011;12319;49.204;8.116;2023-02-18T02:59:06;5.03;;;2.40;;
24163;SDS011;12319;49.204;8.116;2023-02-18T03:04:36;4.40;;;2.03;;
24163;SDS011;12319;49.204;8.116;2023-02-18T03:09:52;5.30;;;2.33;;
24163;SDS011;12319;49.204;8.116;2023-02-18T03:18:34;4.10;;;2.10;;
24163;SDS011;12319;49.204;8.116;2023-02-18T03:24:01;4.68;;;2.40;;
24163;SDS011;12319;49.204;8.116;2023-02-18T03:26:41;4.60;;;2.40;;
24163;SDS011;12319;49.204;8.116;2023-02-18T03:29:16;4.60;;;2.30;;
24163;SDS011;12319;49.204;8.116;2023-02-18T03:31:44;5.15;;;2.47;;
24163;SDS011;12319;49.204;8.116;2023-02-18T03:34:15;4.88;;;2.58;;
24163;SDS011;12319;49.204;8.116;2023-02-18T03:36:44;4.68;;;2.13;;
24163;SDS011;12319;49.204;8.116;2023-02-18T03:39:12;4.33;;;2.20;;
24163;SDS011;12319;49.204;8.116;2023-02-18T03:41:40;5.05;;;2.65;;
24163;SDS011;12319;49.204;8.116;2023-02-18T03:44:07;4.60;;;2.30;;
24163;SDS011;12319;49.204;8.116;2023-02-18T03:46:34;5.00;;;2.50;;
24163;SDS011;12319;49.204;8.116;2023-02-18T03:49:01;4.80;;;2.60;;
24163;SDS011;12319;49.204;8.116;2023-02-18T03:51:27;4.57;;;2.30;;
24163;SDS011;12319;49.204;8.116;2023-02-18T03:53:52;6.15;;;2.80;;
24163;SDS011;12319;49.204;8.116;2023-02-18T03:56:18;4.13;;;2.10;;
24163;SDS011;12319;49.204;8.116;2023-02-18T03:58:45;5.10;;;2.67;;
24163;SDS011;12319;49.204;8.116;2023-02-18T04:01:11;4.80;;;2.33;;
24163;SDS011;12319;49.204;8.116;2023-02-18T04:03:37;4.13;;;2.10;;
24163;SDS011;12319;49.204;8.116;2023-02-18T04:06:02;5.38;;;2.72;;
24163;SDS011;12319;49.204;8.116;2023-02-18T04:08:28;4.57;;;2.53;;
24163;SDS011;12319;49.204;8.116;2023-02-18T04:10:53;5.00;;;2.37;;
24163;SDS011;12319;49.204;8.116;2023-02-18T04:13:19;4.90;;;2.30;;
24163;SDS011;12319;49.204;8.116;2023-02-18T04:15:45;4.60;;;2.17;;
24163;SDS011;12319;49.204;8.116;2023-02-18T04:18:13;4.55;;;2.10;;
24163;SDS011;12319;49.204;8.116;2023-02-18T04:20:38;4.87;;;1.97;;
24163;SDS011;12319;49.204;8.116;2023-02-18T04:23:04;4.47;;;2.28;;
24163;SDS011;12319;49.204;8.116;2023-02-18T04:25:30;4.17;;;2.20;;
24163;SDS011;12319;49.204;8.116;2023-02-18T04:27:56;5.97;;;2.83;;
24163;SDS011;12319;49.204;8.116;2023-02-18T04:30:22;5.15;;;2.63;;
24163;SDS011;12319;49.204;8.116;2023-02-18T04:32:48;5.03;;;2.40;;
24163;SDS011;12319;49.204;8.116;2023-02-18T04:35:14;4.67;;;2.30;;
24163;SDS011;12319;49.204;8.116;2023-02-18T04:37:39;4.53;;;2.35;;
24163;SDS011;12319;49.204;8.116;2023-02-18T04:40:05;5.40;;;2.57;;
24163;SDS011;12319;49.204;8.116;2023-02-18T04:42:31;6.38;;;3.55;;
24163;SDS011;12319;49.204;8.116;2023-02-18T04:44:57;5.80;;;3.27;;
24163;SDS011;12319;49.204;8.116;2023-02-18T04:47:22;5.47;;;3.08;;
24163;SDS011;12319;49.204;8.116;2023-02-18T04:49:48;7.63;;;4.50;;
24163;SDS011;12319;49.204;8.116;2023-02-18T04:52:14;7.10;;;3.63;;
24163;SDS011;12319;49.204;8.116;2023-02-18T04:54:39;5.75;;;2.83;;
24163;SDS011;12319;49.204;8.116;2023-02-18T04:57:05;5.80;;;3.30;;
24163;SDS011;12319;49.204;8.116;2023-02-18T04:59:31;5.90;;;3.28;;
24163;SDS011;12319;49.204;8.116;2023-02-18T05:01:56;5.63;;;3.00;;
24163;SDS011;12319;49.204;8.116;2023-02-18T05:04:22;6.15;;;3.25;;
24163;SDS011;12319;49.204;8.116;2023-02-18T05:06:47;6.23;;;3.63;;
24163;SDS011;12319;49.204;8.116;2023-02-18T05:09:13;5.30;;;2.80;;
24163;SDS011;12319;49.204;8.116;2023-02-18T05:11:39;5.47;;;2.70;;
24163;SDS011;12319;49.204;8.116;2023-02-18T05:14:04;6.67;;;2.80;;
24163;SDS011;12319;49.204;8.116;2023-02-18T05:16:30;6.47;;;3.05;;
24163;SDS011;12319;49.204;8.116;2023-02-18T05:18:55;6.00;;;3.27;;
24163;SDS011;12319;49.204;8.116;2023-02-18T05:21:21;4.70;;;2.40;;
24163;SDS011;12319;49.204;8.116;2023-02-18T05:23:47;7.03;;;3.25;;
24163;SDS011;12319;49.204;8.116;2023-02-18T05:26:12;6.13;;;3.10;;
24163;SDS011;12319;49.204;8.116;2023-02-18T05:28:38;5.17;;;2.67;;
24163;SDS011;12319;49.204;8.116;2023-02-18T05:31:03;6.22;;;3.25;;
24163;SDS011;12319;49.204;8.116;2023-02-18T05:33:29;6.17;;;3.00;;
24163;SDS011;12319;49.204;8.116;2023-02-18T05:35:54;5.53;;;2.97;;
24163;SDS011;12319;49.204;8.116;2023-02-18T05:38:20;6.80;;;3.60;;
24163;SDS011;12319;49.204;8.116;2023-02-18T05:40:45;9.13;;;4.33;;
24163;SDS011;12319;49.204;8.116;2023-02-18T05:43:12;5.95;;;2.92;;
24163;SDS011;12319;49.204;8.116;2023-02-18T05:45:37;5.30;;;2.53;;
24163;SDS011;12319;49.204;8.116;2023-02-18T05:48:03;4.78;;;2.30;;
24163;SDS011;12319;49.204;8.116;2023-02-18T05:50:29;5.23;;;2.50;;
24163;SDS011;12319;49.204;8.116;2023-02-18T05:52:54;5.80;;;2.88;;
24163;SDS011;12319;49.204;8.116;2023-02-18T05:55:20;4.97;;;2.47;;
24163;SDS011;12319;49.204;8.116;2023-02-18T05:57:46;5.10;;;2.75;;
24163;SDS011;12319;49.204;8.116;2023-02-18T06:00:12;5.97;;;3.45;;
24163;SDS011;12319;49.204;8.116;2023-02-18T06:02:38;6.38;;;2.80;;
24163;SDS011;12319;49.204;8.116;2023-02-18T06:05:03;4.17;;;2.20;;
24163;SDS011;12319;49.204;8.116;2023-02-18T06:07:30;5.10;;;2.63;;
24163;SDS011;12319;49.204;8.116;2023-02-18T06:09:55;5.00;;;2.50;;
24163;SDS011;12319;49.204;8.116;2023-02-18T06:12:21;6.20;;;2.90;;
24163;SDS011;12319;49.204;8.116;2023-02-18T06:14:47;6.13;;;3.20;;
24163;SDS011;12319;49.204;8.116;2023-02-18T06:17:13;6.20;;;2.95;;
24163;SDS011;12319;49.204;8.116;2023-02-18T06:19:39;5.45;;;2.60;;
24163;SDS011;12319;49.204;8.116;2023-02-18T06:22:05;5.35;;;2.55;;
24163;SDS011;12319;49.204;8.116;2023-02-18T06:24:31;8.35;;;2.88;;
24163;SDS011;12319;49.204;8.116;2023-02-18T06:26:57;4.63;;;2.30;;
24163;SDS011;12319;49.204;8.116;2023-02-18T06:29:23;4.47;;;2.40;;
24163;SDS011;12319;49.204;8.116;2023-02-18T06:31:49;6.38;;;3.75;;
24163;SDS011;12319;49.204;8.116;2023-02-18T06:34:15;5.32;;;2.80;;
24163;SDS011;12319;49.204;8.116;2023-02-18T06:36:41;4.70;;;2.25;;
24163;SDS011;12319;49.204;8.116;2023-02-18T06:39:07;5.40;;;2.80;;
24163;SDS011;12319;49.204;8.116;2023-02-18T06:41:33;4.90;;;2.27;;
24163;SDS011;12319;49.204;8.116;2023-02-18T06:43:58;8.32;;;3.72;;
24163;SDS011;12319;49.204;8.116;2023-02-18T06:46:24;5.05;;;2.58;;
24163;SDS011;12319;49.204;8.116;2023-02-18T06:48:50;4.10;;;1.90;;
24163;SDS011;12319;49.204;8.116;2023-02-18T06:51:16;5.60;;;2.90;;
24163;SDS011;12319;49.204;8.116;2023-02-18T06:53:43;4.95;;;2.50;;
24163;SDS011;12319;49.204;8.116;2023-02-18T06:56:09;6.15;;;3.08;;
24163;SDS011;12319;49.204;8.116;2023-02-18T06:58:35;4.60;;;2.40;;
24163;SDS011;12319;49.204;8.116;2023-02-18T07:01:01;5.40;;;2.70;;
24163;SDS011;12319;49.204;8.116;2023-02-18T07:03:27;5.10;;;2.60;;
24163;SDS011;12319;49.204;8.116;2023-02-18T07:05:53;5.03;;;2.55;;
24163;SDS011;12319;49.204;8.116;2023-02-18T07:08:18;7.00;;;3.17;;
24163;SDS011;12319;49.204;8.116;2023-02-18T07:10:44;6.83;;;3.10;;
24163;SDS011;12319;49.204;8.116;2023-02-18T07:13:10;5.70;;;2.60;;
24163;SDS011;12319;49.204;8.116;2023-02-18T07:15:36;4.80;;;2.30;;
24163;SDS011;12319;49.204;8.116;2023-02-18T07:18:01;4.95;;;2.28;;
24163;SDS011;12319;49.204;8.116;2023-02-18T07:20:27;4.20;;;2.10;;
24163;SDS011;12319;49.204;8.116;2023-02-18T07:22:53;4.95;;;2.42;;
24163;SDS011;12319;49.204;8.116;2023-02-18T07:25:19;5.40;;;2.37;;
24163;SDS011;12319;49.204;8.116;2023-02-18T07:27:44;6.22;;;2.78;;
24163;SDS011;12319;49.204;8.116;2023-02-18T07:30:10;6.97;;;4.00;;
24163;SDS011;12319;49.204;8.116;2023-02-18T07:32:36;6.65;;;3.10;;
24163;SDS011;12319;49.204;8.116;2023-02-18T07:35:02;4.20;;;2.10;;
24163;SDS011;12319;49.204;8.116;2023-02-18T07:37:29;5.30;;;2.17;;
24163;SDS011;12319;49.204;8.116;2023-02-18T07:39:55;4.00;;;1.92;;
24163;SDS011;12319;49.204;8.116;2023-02-18T07:42:20;3.83;;;1.90;;
24163;SDS011;12319;49.204;8.116;2023-02-18T07:44:46;4.80;;;2.40;;
24163;SDS011;12319;49.204;8.116;2023-02-18T07:47:12;4.60;;;2.25;;
24163;SDS011;12319;49.204;8.116;2023-02-18T07:49:39;4.32;;;2.25;;
24163;SDS011;12319;49.204;8.116;2023-02-18T07:52:05;5.47;;;2.75;;
24163;SDS011;12319;49.204;8.116;2023-02-18T07:54:30;5.30;;;2.60;;
24163;SDS011;12319;49.204;8.116;2023-02-18T07:56:56;6.53;;;2.93;;
24163;SDS011;12319;49.204;8.116;2023-02-18T07:59:21;5.63;;;2.75;;
24163;SDS011;12319;49.204;8.116;2023-02-18T08:01:47;5.73;;;2.93;;
24163;SDS011;12319;49.204;8.116;2023-02-18T08:04:13;5.20;;;2.60;;
24163;SDS011;12319;49.204;8.116;2023-02-18T08:06:40;6.45;;;3.13;;
24163;SDS011;12319;49.204;8.116;2023-02-18T08:09:07;5.82;;;2.85;;
24163;SDS011;12319;49.204;8.116;2023-02-18T08:11:33;5.10;;;2.50;;
24163;SDS011;12319;49.204;8.116;2023-02-18T08:13:59;5.10;;;2.60;;
24163;SDS011;12319;49.204;8.116;2023-02-18T08:16:25;5.33;;;2.50;;
24163;SDS011;12319;49.204;8.116;2023-02-18T08:18:51;4.70;;;2.30;;
24163;SDS011;12319;49.204;8.116;2023-02-18T08:21:18;3.95;;;1.90;;
24163;SDS011;12319;49.204;8.116;2023-02-18T08:23:45;5.10;;;2.75;;
24163;SDS011;12319;49.204;8.116;2023-02-18T08:26:12;4.60;;;2.30;;
24163;SDS011;12319;49.204;8.116;2023-02-18T08:28:37;4.40;;;2.13;;
24163;SDS011;12319;49.204;8.116;2023-02-18T08:31:03;5.22;;;2.10;;
24163;SDS011;12319;49.204;8.116;2023-02-18T08:33:29;5.60;;;2.80;;
24163;SDS011;12319;49.204;8.116;2023-02-18T08:35:55;6.72;;;3.40;;
24163;SDS011;12319;49.204;8.116;2023-02-18T08:38:21;5.47;;;2.57;;
24163;SDS011;12319;49.204;8.116;2023-02-18T08:40:48;5.53;;;2.58;;
24163;SDS011;12319;49.204;8.116;2023-02-18T08:43:14;5.32;;;2.50;;
24163;SDS011;12319;49.204;8.116;2023-02-18T08:45:41;5.10;;;2.57;;
24163;SDS011;12319;49.204;8.116;2023-02-18T08:48:07;5.35;;;2.55;;
24163;SDS011;12319;49.204;8.116;2023-02-18T08:50:35;4.90;;;2.55;;
24163;SDS011;12319;49.204;8.116;2023-02-18T08:53:01;5.65;;;2.70;;
24163;SDS011;12319;49.204;8.116;2023-02-18T08:55:28;4.53;;;1.90;;
24163;SDS011;12319;49.204;8.116;2023-02-18T08:57:54;4.57;;;2.30;;
24163;SDS011;12319;49.204;8.116;2023-02-18T09:00:20;4.78;;;2.13;;
24163;SDS011;12319;49.204;8.116;2023-02-18T09:02:46;4.57;;;2.23;;
24163;SDS011;12319;49.204;8.116;2023-02-18T09:05:12;4.55;;;2.22;;
24163;SDS011;12319;49.204;8.116;2023-02-18T09:07:37;5.10;;;2.50;;
24163;SDS011;12319;49.204;8.116;2023-02-18T09:10:03;4.93;;;2.30;;
24163;SDS011;12319;49.204;8.116;2023-02-18T09:12:30;5.13;;;2.78;;
24163;SDS011;12319;49.204;8.116;2023-02-18T09:14:55;5.50;;;2.80;;
24163;SDS011;12319;49.204;8.116;2023-02-18T09:17:21;4.78;;;2.35;;
24163;SDS011;12319;49.204;8.116;2023-02-18T09:19:46;4.93;;;2.20;;
24163;SDS011;12319;49.204;8.116;2023-02-18T09:22:12;5.13;;;2.40;;
24163;SDS011;12319;49.204;8.116;2023-02-18T09:24:38;5.05;;;2.50;;
24163;SDS011;12319;49.204;8.116;2023-02-18T09:27:05;4.53;;;2.13;;
24163;SDS011;12319;49.204;8.116;2023-02-18T09:29:32;4.00;;;1.90;;
24163;SDS011;12319;49.204;8.116;2023-02-18T09:32:01;4.97;;;2.20;;
24163;SDS011;12319;49.204;8.116;2023-02-18T09:34:28;5.00;;;2.22;;
24163;SDS011;12319;49.204;8.116;2023-02-18T09:36:53;4.63;;;2.07;;
24163;SDS011;12319;49.204;8.116;2023-02-18T09:39:19;4.87;;;2.33;;
24163;SDS011;12319;49.204;8.116;2023-02-18T09:44:31;5.72;;;2.88;;
24163;SDS011;12319;49.204;8.116;2023-02-18T09:47:15;6.75;;;2.85;;
24163;SDS011;12319;49.204;8.116;2023-02-18T09:49:53;4.20;;;1.95;;
24163;SDS011;12319;49.204;8.116;2023-02-18T09:52:28;6.28;;;2.20;;
24163;SDS011;12319;49.204;8.116;2023-02-18T09:54:57;4.70;;;2.25;;
24163;SDS011;12319;49.204;8.116;2023-02-18T10:00:03;3.80;;;1.88;;
24163;SDS011;12319;49.204;8.116;2023-02-18T10:02:34;4.93;;;1.90;;
24163;SDS011;12319;49.204;8.116;2023-02-18T10:05:02;3.78;;;1.90;;
24163;SDS011;12319;49.204;8.116;2023-02-18T10:07:31;4.33;;;1.97;;
24163;SDS011;12319;49.204;8.116;2023-02-18T10:10:00;4.63;;;2.15;;
24163;SDS011;12319;49.204;8.116;2023-02-18T10:12:39;4.47;;;2.20;;
24163;SDS011;12319;49.204;8.116;2023-02-18T10:15:06;5.15;;;2.55;;
24163;SDS011;12319;49.204;8.116;2023-02-18T10:17:43;5.07;;;2.55;;
24163;SDS011;12319;49.204;8.116;2023-02-18T10:20:10;4.50;;;2.10;;
24163;SDS011;12319;49.204;8.116;2023-02-18T10:22:45;4.50;;;2.08;;
24163;SDS011;12319;49.204;8.116;2023-02-18T10:25:15;5.20;;;2.42;;
24163;SDS011;12319;49.204;8.116;2023-02-18T10:27:43;4.25;;;2.00;;
24163;SDS011;12319;49.204;8.116;2023-02-18T10:30:22;5.20;;;2.23;;
24163;SDS011;12319;49.204;8.116;2023-02-18T10:32:59;3.92;;;1.75;;
24163;SDS011;12319;49.204;8.116;2023-02-18T10:35:42;3.63;;;1.70;;
24163;SDS011;12319;49.204;8.116;2023-02-18T10:38:23;4.28;;;1.88;;
24163;SDS011;12319;49.204;8.116;2023-02-18T10:41:19;4.75;;;2.05;;
24163;SDS011;12319;49.204;8.116;2023-02-18T10:46:45;5.07;;;2.40;;
24163;SDS011;12319;49.204;8.116;2023-02-18T10:49:54;5.00;;;2.10;;
24163;SDS011;12319;49.204;8.116;2023-02-18T10:52:36;4.20;;;2.17;;
24163;SDS011;12319;49.204;8.116;2023-02-18T10:55:06;4.60;;;2.10;;
24163;SDS011;12319;49.204;8.116;2023-02-18T10:57:52;3.83;;;1.97;;
24163;SDS011;12319;49.204;8.116;2023-02-18T11:00:20;4.50;;;1.90;;
24163;SDS011;12319;49.204;8.116;2023-02-18T11:05:44;4.22;;;2.03;;
24163;SDS011;12319;49.204;8.116;2023-02-18T11:08:23;4.45;;;2.20;;
24163;SDS011;12319;49.204;8.116;2023-02-18T11:10:51;4.20;;;1.73;;
24163;SDS011;12319;49.204;8.116;2023-02-18T11:13:23;3.90;;;1.70;;
24163;SDS011;12319;49.204;8.116;2023-02-18T11:16:01;4.85;;;2.00;;
24163;SDS011;12319;49.204;8.116;2023-02-18T11:23:50;4.57;;;2.10;;
24163;SDS011;12319;49.204;8.116;2023-02-18T11:26:17;5.03;;;2.20;;
24163;SDS011;12319;49.204;8.116;2023-02-18T11:28:56;4.40;;;2.00;;
24163;SDS011;12319;49.204;8.116;2023-02-18T11:31:30;4.75;;;1.80;;
24163;SDS011;12319;49.204;8.116;2023-02-18T11:34:09;3.83;;;1.80;;
24163;SDS011;12319;49.204;8.116;2023-02-18T11:36:44;4.00;;;1.90;;
24163;SDS011;12319;49.204;8.116;2023-02-18T11:39:18;4.45;;;1.80;;
24163;SDS011;12319;49.204;8.116;2023-02-18T11:41:53;3.83;;;1.70;;
24163;SDS011;12319;49.204;8.116;2023-02-18T11:44:35;5.15;;;1.80;;
24163;SDS011;12319;49.204;8.116;2023-02-18T11:47:04;3.50;;;1.58;;
24163;SDS011;12319;49.204;8.116;2023-02-18T11:49:36;2.87;;;1.50;;
24163;SDS011;12319;49.204;8.116;2023-02-18T11:52:05;3.63;;;1.75;;
24163;SDS011;12319;49.204;8.116;2023-02-18T11:57:38;3.38;;;1.70;;
24163;SDS011;12319;49.204;8.116;2023-02-18T12:00:22;3.80;;;1.90;;
24163;SDS011;12319;49.204;8.116;2023-02-18T12:03:19;4.20;;;1.77;;
24163;SDS011;12319;49.204;8.116;2023-02-18T12:05:47;4.75;;;1.67;;
24163;SDS011;12319;49.204;8.116;2023-02-18T12:08:18;3.78;;;1.90;;
24163;SDS011;12319;49.204;8.116;2023-02-18T12:10:49;3.88;;;1.92;;
24163;SDS011;12319;49.204;8.116;2023-02-18T12:13:29;5.00;;;2.40;;
24163;SDS011;12319;49.204;8.116;2023-02-18T12:27:47;5.20;;;2.95;;
24163;SDS011;12319;49.204;8.116;2023-02-18T12:33:01;5.53;;;3.05;;
24163;SDS011;12319;49.204;8.116;2023-02-18T12:35:47;4.57;;;2.47;;
24163;SDS011;12319;49.204;8.116;2023-02-18T12:38:47;4.13;;;1.95;;
24163;SDS011;12319;49.204;8.116;2023-02-18T12:49:46;4.90;;;2.35;;
24163;SDS011;12319;49.204;8.116;2023-02-18T12:55:40;4.78;;;2.20;;
24163;SDS011;12319;49.204;8.116;2023-02-18T12:58:19;4.30;;;2.10;;
24163;SDS011;12319;49.204;8.116;2023-02-18T13:03:42;5.07;;;2.20;;
24163;SDS011;12319;49.204;8.116;2023-02-18T13:06:39;6.32;;;2.50;;
24163;SDS011;12319;49.204;8.116;2023-02-18T13:14:38;4.50;;;2.35;;
24163;SDS011;12319;49.204;8.116;2023-02-18T13:17:13;4.88;;;2.60;;
24163;SDS011;12319;49.204;8.116;2023-02-18T13:19:51;4.70;;;2.20;;
24163;SDS011;12319;49.204;8.116;2023-02-18T13:22:46;4.57;;;2.10;;
24163;SDS011;12319;49.204;8.116;2023-02-18T13:25:14;5.17;;;2.60;;
24163;SDS011;12319;49.204;8.116;2023-02-18T13:31:08;4.88;;;2.50;;
24163;SDS011;12319;49.204;8.116;2023-02-18T13:33:37;4.88;;;2.40;;
24163;SDS011;12319;49.204;8.116;2023-02-18T13:39:15;4.97;;;2.47;;
24163;SDS011;12319;49.204;8.116;2023-02-18T13:41:45;4.97;;;2.65;;
24163;SDS011;12319;49.204;8.116;2023-02-18T13:46:47;5.13;;;2.75;;
24163;SDS011;12319;49.204;8.116;2023-02-18T13:49:24;4.93;;;2.33;;
24163;SDS011;12319;49.204;8.116;2023-02-18T13:51:55;4.07;;;1.90;;
24163;SDS011;12319;49.204;8.116;2023-02-18T13:54:24;4.70;;;2.33;;
24163;SDS011;12319;49.204;8.116;2023-02-18T13:57:04;4.80;;;2.50;;
24163;SDS011;12319;49.204;8.116;2023-02-18T14:10:23;4.63;;;2.50;;
24163;SDS011;12319;49.204;8.116;2023-02-18T14:20:26;4.30;;;2.20;;
24163;SDS011;12319;49.204;8.116;2023-02-18T14:22:54;3.97;;;1.95;;
24163;SDS011;12319;49.204;8.116;2023-02-18T14:31:00;5.28;;;2.42;;
24163;SDS011;12319;49.204;8.116;2023-02-18T14:33:28;5.50;;;3.00;;
24163;SDS011;12319;49.204;8.116;2023-02-18T14:46:30;5.70;;;2.60;;
24163;SDS011;12319;49.204;8.116;2023-02-18T14:52:03;4.40;;;2.40;;
24163;SDS011;12319;49.204;8.116;2023-02-18T14:54:31;4.30;;;2.10;;
24163;SDS011;12319;49.204;8.116;2023-02-18T14:57:02;3.87;;;1.87;;
24163;SDS011;12319;49.204;8.116;2023-02-18T14:59:34;5.35;;;2.55;;
24163;SDS011;12319;49.204;8.116;2023-02-18T15:02:14;6.10;;;3.08;;
24163;SDS011;12319;49.204;8.116;2023-02-18T15:04:46;5.13;;;2.58;;
24163;SDS011;12319;49.204;8.116;2023-02-18T15:07:11;4.73;;;2.60;;
24163;SDS011;12319;49.204;8.116;2023-02-18T15:09:47;5.18;;;2.28;;
24163;SDS011;12319;49.204;8.116;2023-02-18T15:12:17;4.82;;;2.13;;
24163;SDS011;12319;49.204;8.116;2023-02-18T15:14:45;5.73;;;2.60;;
24163;SDS011;12319;49.204;8.116;2023-02-18T15:17:15;4.90;;;2.35;;
24163;SDS011;12319;49.204;8.116;2023-02-18T15:19:48;4.93;;;2.40;;
24163;SDS011;12319;49.204;8.116;2023-02-18T15:22:23;5.57;;;2.63;;
24163;SDS011;12319;49.204;8.116;2023-02-18T15:24:51;5.35;;;2.42;;
24163;SDS011;12319;49.204;8.116;2023-02-18T15:27:24;3.80;;;1.80;;
24163;SDS011;12319;49.204;8.116;2023-02-18T15:29:56;4.38;;;1.90;;
24163;SDS011;12319;49.204;8.116;2023-02-18T15:32:49;4.90;;;2.60;;
24163;SDS011;12319;49.204;8.116;2023-02-18T15:35:20;5.47;;;2.65;;
24163;SDS011;12319;49.204;8.116;2023-02-18T15:37:51;5.00;;;2.60;;
24163;SDS011;12319;49.204;8.116;2023-02-18T15:40:19;4.37;;;2.20;;
24163;SDS011;12319;49.204;8.116;2023-02-18T15:42:49;4.70;;;2.10;;
24163;SDS011;12319;49.204;8.116;2023-02-18T15:45:38;6.00;;;2.38;;
24163;SDS011;12319;49.204;8.116;2023-02-18T15:48:03;5.18;;;2.65;;
24163;SDS011;12319;49.204;8.116;2023-02-18T15:53:17;4.13;;;2.10;;
24163;SDS011;12319;49.204;8.116;2023-02-18T15:55:45;4.78;;;2.42;;
24163;SDS011;12319;49.204;8.116;2023-02-18T16:00:49;5.15;;;2.78;;
24163;SDS011;12319;49.204;8.116;2023-02-18T16:03:21;5.57;;;2.80;;
24163;SDS011;12319;49.204;8.116;2023-02-18T16:06:37;5.07;;;2.40;;
24163;SDS011;12319;49.204;8.116;2023-02-18T16:08:58;4.40;;;2.20;;
24163;SDS011;12319;49.204;8.116;2023-02-18T16:11:34;5.40;;;2.25;;
24163;SDS011;12319;49.204;8.116;2023-02-18T16:14:19;5.78;;;2.00;;
24163;SDS011;12319;49.204;8.116;2023-02-18T16:19:31;4.37;;;1.73;;
24163;SDS011;12319;49.204;8.116;2023-02-18T16:21:57;4.18;;;2.08;;
24163;SDS011;12319;49.204;8.116;2023-02-18T16:24:30;6.65;;;2.22;;
24163;SDS011;12319;49.204;8.116;2023-02-18T16:27:03;4.45;;;2.08;;
24163;SDS011;12319;49.204;8.116;2023-02-18T16:29:41;5.78;;;2.80;;
24163;SDS011;12319;49.204;8.116;2023-02-18T16:32:07;4.57;;;2.20;;
24163;SDS011;12319;49.204;8.116;2023-02-18T16:34:33;5.78;;;2.10;;
24163;SDS011;12319;49.204;8.116;2023-02-18T16:36:59;4.60;;;1.95;;
24163;SDS011;12319;49.204;8.116;2023-02-18T16:39:44;5.60;;;3.00;;
24163;SDS011;12319;49.204;8.116;2023-02-18T16:42:10;4.75;;;2.40;;
24163;SDS011;12319;49.204;8.116;2023-02-18T16:44:37;4.50;;;2.10;;
24163;SDS011;12319;49.204;8.116;2023-02-18T16:47:03;4.23;;;2.10;;
24163;SDS011;12319;49.204;8.116;2023-02-18T16:49:30;4.80;;;2.45;;
24163;SDS011;12319;49.204;8.116;2023-02-18T16:51:56;4.88;;;2.60;;
24163;SDS011;12319;49.204;8.116;2023-02-18T16:54:25;5.00;;;2.60;;
24163;SDS011;12319;49.204;8.116;2023-02-18T16:56:52;4.70;;;2.22;;
24163;SDS011;12319;49.204;8.116;2023-02-18T16:59:18;8.98;;;2.70;;
24163;SDS011;12319;49.204;8.116;2023-02-18T17:01:43;6.40;;;2.97;;
24163;SDS011;12319;49.204;8.116;2023-02-18T17:04:10;5.70;;;2.60;;
24163;SDS011;12319;49.204;8.116;2023-02-18T17:06:38;4.40;;;2.15;;
24163;SDS011;12319;49.204;8.116;2023-02-18T17:09:12;4.90;;;2.30;;
24163;SDS011;12319;49.204;8.116;2023-02-18T17:11:40;4.43;;;1.98;;
24163;SDS011;12319;49.204;8.116;2023-02-18T17:14:08;4.90;;;2.40;;
24163;SDS011;12319;49.204;8.116;2023-02-18T17:16:38;4.50;;;2.10;;
24163;SDS011;12319;49.204;8.116;2023-02-18T17:19:04;4.47;;;2.10;;
24163;SDS011;12319;49.204;8.116;2023-02-18T17:21:29;3.80;;;1.93;;
24163;SDS011;12319;49.204;8.116;2023-02-18T17:23:55;4.38;;;2.28;;
24163;SDS011;12319;49.204;8.116;2023-02-18T17:26:25;4.10;;;2.10;;
24163;SDS011;12319;49.204;8.116;2023-02-18T17:28:53;4.90;;;2.00;;
24163;SDS011;12319;49.204;8.116;2023-02-18T17:31:24;4.18;;;2.05;;
24163;SDS011;12319;49.204;8.116;2023-02-18T17:33:52;4.37;;;2.00;;